createdAt,value
2017-08-28T12:33:14.616Z,71.38
2017-08-28T12:35:42.076Z,71.44
2017-08-28T12:38:10.113Z,71.33
2017-08-28T12:40:37.577Z,71.77
2017-08-28T12:43:05.108Z,71.64
2017-08-28T12:45:32.558Z,71.74
2017-08-28T12:47:59.996Z,71.89
2017-08-28T12:50:27.435Z,72.11
2017-08-28T12:52:54.873Z,72.32
2017-08-28T12:55:22.347Z,72.28
2017-08-28T12:57:49.779Z,72.65
2017-08-28T13:00:17.563Z,72.77
2017-08-28T13:08:34.677Z,72.12
2017-08-28T13:11:02.147Z,73.52
2017-08-28T13:13:29.685Z,74.20
2017-08-28T13:15:57.283Z,74.02
2017-08-28T13:18:24.735Z,74.04
2017-08-28T13:20:52.213Z,73.95
2017-08-28T13:23:19.657Z,74.15
2017-08-28T13:25:47.087Z,74.29
2017-08-28T13:28:14.546Z,74.22
2017-08-28T13:30:42.012Z,74.22
2017-08-28T13:33:09.476Z,74.10
2017-08-28T13:35:36.957Z,73.81
2017-08-28T13:38:04.437Z,74.04
2017-08-28T13:40:31.910Z,73.42
2017-08-28T13:42:59.422Z,73.53
2017-08-28T13:45:26.888Z,73.45
2017-08-28T13:47:54.339Z,73.44
2017-08-28T13:50:21.784Z,73.22
2017-08-28T13:52:49.254Z,73.34
2017-08-28T13:55:16.789Z,73.20
2017-08-28T13:57:44.245Z,73.23
2017-08-28T14:00:11.687Z,73.15
2017-08-28T14:02:39.131Z,73.05
2017-08-28T14:05:06.599Z,72.99
2017-08-28T14:07:34.130Z,73.02
2017-08-28T14:10:01.583Z,72.92
2017-08-28T14:12:29.087Z,72.81
2017-08-28T14:14:56.595Z,72.88
2017-08-28T14:17:24.049Z,72.80
2017-08-28T14:19:51.501Z,72.80
2017-08-28T14:22:18.983Z,72.72
2017-08-28T14:24:46.441Z,72.68
2017-08-28T14:27:13.883Z,72.62
2017-08-28T14:29:41.371Z,72.74
2017-08-28T14:32:08.826Z,72.86
2017-08-28T14:34:36.274Z,73.06
2017-08-28T14:37:03.852Z,73.03
2017-08-28T14:39:31.313Z,73.04
2017-08-28T14:41:58.884Z,72.73
2017-08-28T14:44:26.328Z,72.65
2017-08-28T14:46:54.402Z,72.64
2017-08-28T14:49:21.848Z,72.57
2017-08-28T14:51:49.304Z,72.56
2017-08-28T14:54:16.746Z,72.67
2017-08-28T14:56:44.965Z,72.64
2017-08-28T14:59:12.468Z,72.72
2017-08-28T15:01:39.950Z,72.71
2017-08-28T15:04:08.034Z,72.67
2017-08-28T15:06:35.487Z,72.59
2017-08-28T15:09:03.556Z,72.41
2017-08-28T15:11:31.012Z,72.45
2017-08-28T15:13:58.543Z,72.36
2017-08-28T15:16:25.983Z,72.20
2017-08-28T15:18:53.475Z,72.16
2017-08-28T15:21:21.131Z,72.13
2017-08-28T15:23:48.645Z,72.03
2017-08-28T15:26:16.106Z,72.04
2017-08-28T15:28:43.569Z,72.01
2017-08-28T15:31:11.273Z,71.89
2017-08-28T15:33:38.695Z,71.84
2017-08-28T15:36:06.131Z,71.82
2017-08-28T15:38:33.595Z,71.73
2017-08-28T15:41:01.034Z,71.76
2017-08-28T15:43:28.552Z,71.77
2017-08-28T15:45:56.085Z,71.83
2017-08-28T15:48:23.538Z,71.81
2017-08-28T15:50:51.790Z,71.83
2017-08-28T15:53:19.260Z,71.82
2017-08-28T15:55:46.695Z,71.79
2017-08-28T15:58:14.240Z,71.93
2017-08-28T16:00:41.689Z,72.52
2017-08-28T16:03:09.144Z,72.52
2017-08-28T16:05:36.606Z,72.79
2017-08-28T16:08:04.087Z,72.64
2017-08-28T16:10:31.527Z,72.65
2017-08-28T16:12:59.075Z,72.54
2017-08-28T16:15:26.523Z,72.41
2017-08-28T16:17:53.977Z,72.30
2017-08-28T16:20:21.430Z,72.56
2017-08-28T16:22:48.857Z,72.45
2017-08-28T16:25:16.308Z,72.55
2017-08-28T16:27:43.801Z,72.67
2017-08-28T16:30:11.244Z,72.75
2017-08-28T16:32:38.743Z,72.56
2017-08-28T16:35:06.329Z,72.66
2017-08-28T16:37:33.778Z,72.49
2017-08-28T16:40:01.268Z,72.53
2017-08-28T16:42:28.714Z,72.85
2017-08-28T16:44:56.153Z,72.95
2017-08-28T16:47:23.611Z,73.08
2017-08-28T16:49:51.063Z,72.81
2017-08-28T16:52:18.801Z,72.66
2017-08-28T16:54:46.257Z,72.78
2017-08-28T16:57:13.888Z,72.65
2017-08-28T16:59:41.327Z,72.64
2017-08-28T17:02:09.403Z,72.55
2017-08-28T17:04:41.135Z,72.45
2017-08-28T17:07:09.760Z,72.42
2017-08-28T17:09:45.096Z,72.33
2017-08-28T17:12:12.661Z,72.33
2017-08-28T17:14:40.129Z,72.55
2017-08-28T17:17:07.875Z,72.50
2017-08-28T17:19:35.331Z,72.45
2017-08-28T17:22:06.457Z,72.42
2017-08-28T17:24:33.931Z,72.43
2017-08-28T17:27:01.493Z,72.40
2017-08-28T17:29:28.935Z,72.44
2017-08-28T17:31:56.417Z,72.43
2017-08-28T17:34:23.951Z,72.38
2017-08-28T17:36:51.399Z,72.41
2017-08-28T17:39:18.903Z,72.38
2017-08-28T17:41:46.455Z,72.32
2017-08-28T17:44:14.149Z,72.41
2017-08-28T17:46:41.846Z,72.29
2017-08-28T17:49:09.307Z,72.31
2017-08-28T17:51:36.777Z,72.22
2017-08-28T17:54:04.250Z,72.34
2017-08-28T17:56:31.706Z,72.21
2017-08-28T17:58:59.193Z,72.20
2017-08-28T18:01:26.660Z,72.10
2017-08-28T18:03:54.680Z,72.24
2017-08-28T18:06:22.116Z,72.29
2017-08-28T18:08:49.684Z,72.32
2017-08-28T18:11:17.138Z,72.32
2017-08-28T18:13:44.580Z,72.36
2017-08-28T18:16:12.027Z,72.36
2017-08-28T18:18:39.472Z,72.33
2017-08-28T18:21:07.072Z,72.49
2017-08-28T18:23:34.537Z,72.22
2017-08-28T18:26:01.995Z,72.36
2017-08-28T18:28:29.448Z,72.37
2017-08-28T18:30:57.104Z,72.39
2017-08-28T18:33:24.584Z,72.27
2017-08-28T18:35:52.071Z,72.25
2017-08-28T18:38:19.545Z,72.07
2017-08-28T18:40:46.991Z,72.10
2017-08-28T18:43:14.594Z,72.12
2017-08-28T18:45:42.051Z,71.92
2017-08-28T18:48:10.129Z,72.01
2017-08-28T18:50:37.605Z,71.84
2017-08-28T18:53:05.130Z,71.84
2017-08-28T18:55:32.634Z,71.85
2017-08-28T18:58:00.098Z,71.80
2017-08-28T19:00:27.576Z,71.70
2017-08-28T19:02:55.022Z,71.68
2017-08-28T19:05:22.592Z,71.70
2017-08-28T19:07:50.386Z,71.73
2017-08-28T19:10:17.822Z,71.73
2017-08-28T19:12:45.287Z,71.80
2017-08-28T19:15:12.787Z,71.78
2017-08-28T19:17:40.266Z,71.72
2017-08-28T19:20:07.731Z,71.70
2017-08-28T19:22:35.230Z,71.68
2017-08-28T19:25:02.684Z,71.58
2017-08-28T19:27:30.185Z,71.62
2017-08-28T19:29:57.687Z,71.58
2017-08-28T19:32:25.112Z,71.56
2017-08-28T19:34:54.886Z,71.59
2017-08-28T19:37:22.950Z,71.40
2017-08-28T19:39:51.212Z,71.33
2017-08-28T19:42:18.681Z,71.24
2017-08-28T19:44:46.175Z,71.25
2017-08-28T19:47:13.617Z,71.22
2017-08-28T19:49:41.661Z,71.37
2017-08-28T19:52:09.119Z,71.44
2017-08-28T19:54:36.558Z,71.32
2017-08-28T19:57:04.001Z,71.30
2017-08-28T19:59:31.495Z,71.26
2017-08-28T20:01:58.974Z,71.30
2017-08-28T20:04:26.408Z,71.26
2017-08-28T20:06:53.885Z,71.26
2017-08-28T20:09:21.345Z,71.11
2017-08-28T20:11:48.797Z,70.95
2017-08-28T20:14:16.284Z,70.94
2017-08-28T20:16:43.726Z,71.20
2017-08-28T20:19:11.156Z,71.18
2017-08-28T20:21:38.618Z,71.10
2017-08-28T20:24:06.245Z,71.15
2017-08-28T20:26:33.704Z,71.07
2017-08-28T20:29:01.155Z,70.85
2017-08-28T20:31:28.612Z,70.62
2017-08-28T20:33:56.054Z,70.68
2017-08-28T20:36:23.825Z,70.66
2017-08-28T20:38:51.362Z,70.30
2017-08-28T20:41:18.821Z,70.27
2017-08-28T20:43:46.326Z,70.33
2017-08-28T20:46:13.770Z,70.26
2017-08-28T20:48:41.232Z,70.26
2017-08-28T20:51:08.779Z,70.03
2017-08-28T20:53:36.247Z,70.00
2017-08-28T20:56:03.701Z,69.97
2017-08-28T20:58:31.195Z,70.05
2017-08-28T21:00:58.627Z,70.03
2017-08-28T21:03:26.081Z,70.11
2017-08-28T21:05:53.567Z,70.17
2017-08-28T21:08:21.125Z,70.12
2017-08-28T21:10:48.635Z,70.14
2017-08-28T21:13:16.222Z,70.05
2017-08-28T21:15:43.857Z,70.07
2017-08-28T21:18:11.406Z,69.95
2017-08-28T21:20:39.390Z,69.95
2017-08-28T21:23:06.844Z,69.85
2017-08-28T21:25:34.280Z,69.67
2017-08-28T21:28:01.831Z,69.60
2017-08-28T21:30:29.317Z,69.56
2017-08-28T21:32:56.750Z,69.61
2017-08-28T21:35:24.271Z,69.66
2017-08-28T21:37:51.747Z,69.56
2017-08-28T21:40:19.249Z,69.43
2017-08-28T21:42:46.727Z,69.46
2017-08-28T21:45:14.362Z,69.32
2017-08-28T21:47:41.826Z,69.33
2017-08-28T21:50:09.309Z,69.34
2017-08-28T21:52:36.860Z,69.24
2017-08-28T21:55:04.392Z,69.12
2017-08-28T21:57:31.969Z,69.14
2017-08-28T21:59:59.624Z,69.09
2017-08-28T22:02:27.069Z,69.09
2017-08-28T22:04:54.538Z,69.07
2017-08-28T22:07:21.980Z,69.02
2017-08-28T22:09:49.451Z,69.06
2017-08-28T22:12:16.915Z,68.92
2017-08-28T22:14:44.381Z,68.99
2017-08-28T22:17:11.837Z,68.90
2017-08-28T22:19:39.378Z,68.89
2017-08-28T22:22:06.960Z,68.88
2017-08-28T22:24:34.380Z,68.77
2017-08-28T22:27:01.839Z,68.86
2017-08-28T22:29:29.292Z,68.76
2017-08-28T22:31:56.739Z,68.73
2017-08-28T22:34:24.205Z,68.79
2017-08-28T22:36:51.663Z,68.72
2017-08-28T22:39:19.117Z,68.67
2017-08-28T22:41:46.573Z,68.69
2017-08-28T22:44:14.018Z,68.70
2017-08-28T22:46:41.631Z,68.70
2017-08-28T22:49:09.093Z,68.72
2017-08-28T22:51:36.559Z,68.71
2017-08-28T22:54:04.005Z,68.74
2017-08-28T22:56:31.451Z,68.60
2017-08-28T22:58:59.004Z,68.74
2017-08-28T23:01:26.460Z,68.73
2017-08-28T23:03:53.939Z,68.68
2017-08-28T23:06:21.406Z,68.71
2017-08-28T23:08:48.903Z,68.47
2017-08-28T23:11:16.393Z,68.60
2017-08-28T23:13:43.844Z,68.45
2017-08-28T23:16:11.318Z,68.36
2017-08-28T23:18:38.799Z,68.36
2017-08-28T23:21:06.290Z,68.23
2017-08-28T23:23:33.851Z,68.34
2017-08-28T23:26:01.336Z,68.37
2017-08-28T23:28:28.866Z,68.38
2017-08-28T23:30:56.338Z,68.48
2017-08-28T23:33:23.788Z,68.44
2017-08-28T23:35:51.335Z,68.52
2017-08-28T23:38:18.805Z,68.48
2017-08-28T23:40:46.272Z,68.51
2017-08-28T23:43:13.729Z,68.55
2017-08-28T23:45:41.196Z,68.49
2017-08-28T23:48:08.633Z,68.53
2017-08-28T23:50:36.095Z,68.42
2017-08-28T23:53:03.579Z,68.37
2017-08-28T23:55:31.060Z,68.31
2017-08-28T23:57:58.512Z,68.23
